• Join FlightAware (Why Join?)
  • Login
  • US Flag 
05:22PM EST


 

Airport Tracker/Info


-or-


 

Live Flight TrackerFlight Track Log ✈ SWA896 ✈ 24-Apr-2013 ✈ KLAS - KSMF

Flight Track Log - Related Links

Times and Time Zones

All times are in EDT time to prevent confusion due to time zone crossing. See the SWA896 flight status page for this flight to view local times or setup timezone preferences in your user account.

Time Position Orientation Groundspeed Altitude Reporting Facility
EDT Latitude Longitude Course Direction KTS MPH feet Rate Location/Type
02:14PM 36.0747 -115.1714 255° West 172 198 3,300  Level Los Angeles Center
02:15PM 36.0556 -115.2628 255° West 266 306 5,700 1,583 Climbing Los Angeles Center
02:16PM 35.9878 -115.2919 199° South 282 325 7,100 2,031 Climbing Los Angeles Center
02:17PM 35.9142 -115.3694 220° Southwest 289 333 10,000 1,935 Climbing Los Angeles Center
02:18PM 35.8858 -115.4650 250° West 308 354 11,100 532 Climbing Los Angeles Center
02:19PM 35.8894 -115.5836 272° West 337 388 11,100 726 Level Los Angeles Center
02:20PM 35.8911 -115.7081 271° West 340 391 12,600 2,177 Climbing Los Angeles Center
02:21PM 35.8931 -115.8269 271° West 348 400 15,600 2,976 Climbing Los Angeles Center
02:22PM 35.9414 -115.9428 297° West 368 423 18,800 2,688 Climbing Los Angeles Center
02:23PM 36.0150 -116.0375 314° West 384 442 21,200 2,323 Climbing Los Angeles Center
02:24PM 36.0989 -116.1453 314° West 402 463 23,600 2,226 Climbing Los Angeles Center
02:25PM 36.1786 -116.2464 314° West 406 467 25,800 1,935 Climbing Los Angeles Center
02:26PM 36.2603 -116.3517 314° West 418 481 27,600 1,645 Climbing Los Angeles Center
02:27PM 36.3431 -116.4572 314° West 426 490 29,200 1,839 Climbing Los Angeles Center
02:28PM 36.4253 -116.5650 313° West 430 495 31,400 1,887 Climbing Los Angeles Center
02:29PM 36.5072 -116.6703 314° West 426 490 33,100 1,248 Climbing Los Angeles Center
02:30PM 36.6042 -116.7772 318° Northwest 431 496 34,000 432 Climbing Los Angeles Center
02:31PM 36.7081 -116.8553 329° Northwest 435 501 34,000  Level Los Angeles Center
02:32PM 36.8331 -116.9506 329° Northwest 438 504 34,000  Level Los Angeles Center
02:34PM 36.9372 -117.0297 329° Northwest 438 504 34,000  Level Los Angeles Center
02:35PM 37.0417 -117.1094 329° Northwest 438 504 34,000  Level Los Angeles Center
02:36PM 37.1444 -117.1889 328° Northwest 435 501 34,000  Level Los Angeles Center
02:37PM 37.2658 -117.2875 327° Northwest 431 496 34,000  Level Oakland Center
02:38PM 37.3711 -117.3575 332° Northwest 426 490 34,000  Level Oakland Center
02:39PM 37.4714 -117.4386 327° Northwest 427 491 34,000  Level Oakland Center
02:40PM 37.5433 -117.5544 308° West 418 481 34,000  Level Oakland Center
02:41PM 37.6169 -117.6692 309° West 418 481 34,000  Level Oakland Center
02:42PM 37.7033 -117.8078 308° West 417 480 34,000  Level Oakland Center
02:43PM 37.7758 -117.9250 308° West 421 484 34,000  Level Oakland Center
02:44PM 37.8478 -118.0419 308° West 419 482 34,000  Level Oakland Center
02:45PM 37.9206 -118.1583 308° West 421 484 34,000  Level Oakland Center
02:46PM 37.9931 -118.2769 308° West 421 484 34,000  Level Oakland Center
02:47PM 38.0653 -118.3950 308° West 422 486 34,000 -439 Level Oakland Center
02:48PM 38.1317 -118.5044 308° West 424 488 33,100 -1,024 Descending Oakland Center
02:49PM 38.2200 -118.6483 308° West 429 494 31,900 -1,073 Descending Oakland Center
02:50PM 38.2928 -118.7681 308° West 427 491 30,900 -927 Descending Oakland Center
02:51PM 38.3539 -118.8928 302° West 418 481 30,000 -443 Descending Oakland Center
02:52PM 38.3961 -119.0294 292° West 412 474 30,000  Level Oakland Center
02:53PM 38.4386 -119.1658 292° West 413 475 30,000  Level Oakland Center
02:54PM 38.4814 -119.3036 292° West 415 478 30,000  Level Oakland Center
02:55PM 38.5231 -119.4406 291° West 413 475 30,000 -439 Level Oakland Center
02:56PM 38.5664 -119.5789 292° West 417 480 29,100 -927 Descending Oakland Center
02:57PM 38.6094 -119.7194 291° West 422 486 28,100 -1,024 Descending Oakland Center
02:58PM 38.6569 -119.8747 291° West 417 480 27,000 -1,082 Descending Oakland Center
02:59PM 38.6994 -120.0122 292° West 417 480 25,900 -1,024 Descending Oakland Center
03:00PM 38.7406 -120.1461 292° West 409 471 24,900 -976 Descending Oakland Center
03:01PM 38.7794 -120.2781 291° West 400 460 23,900 -976 Descending Oakland Center
03:02PM 38.8197 -120.4111 291° West 401 461 22,900 -976 Descending Oakland Center
03:03PM 38.8333 -120.5533 277° West 405 466 21,900 -1,317 Descending Oakland Center
03:04PM 38.8433 -120.6950 275° West 401 461 20,200 -2,049 Descending Oakland Center
03:05PM 38.8558 -120.8619 276° West 395 455 17,700 -2,262 Descending Oakland Center
03:06PM 38.8658 -120.9975 275° West 387 445 15,600 -2,244 Descending Oakland Center
03:08PM 38.8750 -121.1303 275° West 380 437 13,100 -2,265 Descending Oakland Center
03:08PM 38.8833 -121.2167 277° West 370 426 11,900 -1,938 Descending Northern Cal TRACON
03:09PM 38.8833 -121.3500 270° West 355 409 10,000 -950 Descending Northern Cal TRACON
03:10PM 38.9000 -121.4500 282° West 310 357 10,000  Level Northern Cal TRACON
03:11PM 38.9000 -121.5667 270° West 297 342 10,000 -1,050 Level Northern Cal TRACON
03:12PM 38.8833 -121.6667 258° West 295 339 7,900 -2,044 Descending Northern Cal TRACON
03:13PM 38.8625 -121.6947 226° Southwest 285 328 6,900 -1,696 Descending Oakland Center
03:14PM 38.7864 -121.7008 184° South 276 318 5,300 -1,415 Descending Oakland Center
03:15PM 38.7119 -121.7061 183° South 269 310 4,000 -1,073 Descending Oakland Center
03:16PM 38.6392 -121.7128 184° South 267 307 3,100 -1,024 Descending Oakland Center
03:17PM 38.6128 -121.6633 124° Southeast 221 254 1,900 -976 Descending Oakland Center
03:18PM 38.6267 -121.6075 72° East 190 219 1,100 -795 Descending Oakland Center
03:18PM 38.6500 -121.6000 14° North 146 168 800 -732 Descending Northern Cal TRACON
03:19PM 38.6833 -121.6000 360° North 151 174 100 -700 Descending Northern Cal TRACON